MZT1233 ZGSZ-ZSSS
Flight info
| Callsign | MZT1233 |
|---|---|
| Flight time | 1h 39m |
| Altitude | 37100 |
| Route | IDUMA W41 ISLOM G471 XEBUL H22 UPNUG W76 AREPI B221 SHZ G204 JTN |
| Aircraft | CL60/M-SADE3FGHIJ3J4J7P2RWXY/HB1D1 |
Departure
| Time | 2026-04-22 10:15 |
|---|---|
| Airport | Shenzhen Bao'an International Airport (ZGSZ) |
Arrival
| Time | 2026-04-22 11:55 |
|---|---|
| Airport | Shanghai Hongqiao International Airport (ZSSS) |
| Time | Latitude | Longitude | Altitude | Speed | Heading |
|---|---|---|---|---|---|
| 2026-04-22 09:53 | 22.64761 | 113.79462 | 21 ft | 0 kts | 153° |
| 2026-04-22 10:09 | 22.64760 | 113.79462 | 21 ft | 0 kts | 153° |
| 2026-04-22 10:09 | 22.64770 | 113.79457 | 21 ft | 2 kts | 153° |
| 2026-04-22 10:09 | 22.64783 | 113.79450 | 20 ft | 2 kts | 153° |
| 2026-04-22 10:10 | 22.64797 | 113.79443 | 20 ft | 2 kts | 153° |
| 2026-04-22 10:10 | 22.64810 | 113.79435 | 21 ft | 2 kts | 153° |
| 2026-04-22 10:10 | 22.64823 | 113.79428 | 20 ft | 2 kts | 154° |
| 2026-04-22 10:10 | 22.64838 | 113.79427 | 21 ft | 2 kts | 200° |
| 2026-04-22 10:11 | 22.64848 | 113.79436 | 20 ft | 0 kts | 241° |
| 2026-04-22 10:11 | 22.64849 | 113.79439 | 20 ft | 0 kts | 243° |
| 2026-04-22 10:12 | 22.64832 | 113.79401 | 20 ft | 11 kts | 243° |
| 2026-04-22 10:12 | 22.64778 | 113.79289 | 20 ft | 21 kts | 242° |
| 2026-04-22 10:13 | 22.64770 | 113.79182 | 20 ft | 15 kts | 325° |
| 2026-04-22 10:13 | 22.64875 | 113.79124 | 20 ft | 19 kts | 333° |
| 2026-04-22 10:13 | 22.65026 | 113.79041 | 20 ft | 27 kts | 333° |
| 2026-04-22 10:13 | 22.65180 | 113.78957 | 20 ft | 22 kts | 333° |
| 2026-04-22 10:14 | 22.65325 | 113.78876 | 20 ft | 24 kts | 332° |
| 2026-04-22 10:14 | 22.65358 | 113.78799 | 20 ft | 12 kts | 246° |
| 2026-04-22 10:14 | 22.65316 | 113.78710 | 20 ft | 14 kts | 242° |
| 2026-04-22 10:14 | 22.65264 | 113.78613 | 20 ft | 14 kts | 213° |
| 2026-04-22 10:15 | 22.65167 | 113.78639 | 20 ft | 21 kts | 154° |
| 2026-04-22 10:15 | 22.64787 | 113.78846 | 21 ft | 105 kts | 153° |
| 2026-04-22 10:15 | 22.63916 | 113.79324 | 157 ft | 164 kts | 155° |
| 2026-04-22 10:15 | 22.62840 | 113.79900 | 831 ft | 179 kts | 156° |
| 2026-04-22 10:16 | 22.61697 | 113.80488 | 1676 ft | 190 kts | 162° |
| 2026-04-22 10:16 | 22.60355 | 113.80776 | 2346 ft | 210 kts | 174° |
| 2026-04-22 10:16 | 22.58847 | 113.80958 | 3026 ft | 228 kts | 175° |
| 2026-04-22 10:16 | 22.57244 | 113.81142 | 3892 ft | 236 kts | 176° |
| 2026-04-22 10:17 | 22.55597 | 113.81332 | 4789 ft | 244 kts | 176° |
| 2026-04-22 10:17 | 22.53896 | 113.81546 | 5858 ft | 250 kts | 175° |
| 2026-04-22 10:17 | 22.52177 | 113.81728 | 6936 ft | 250 kts | 186° |
| 2026-04-22 10:17 | 22.50519 | 113.81282 | 7917 ft | 249 kts | 209° |
| 2026-04-22 10:18 | 22.49192 | 113.80128 | 8855 ft | 250 kts | 233° |
| 2026-04-22 10:18 | 22.48449 | 113.78455 | 9761 ft | 254 kts | 257° |
| 2026-04-22 10:18 | 22.48253 | 113.76557 | 10645 ft | 259 kts | 263° |
| 2026-04-22 10:18 | 22.48159 | 113.74594 | 11492 ft | 264 kts | 271° |
| 2026-04-22 10:19 | 22.48566 | 113.72653 | 12310 ft | 272 kts | 291° |
| 2026-04-22 10:19 | 22.49630 | 113.70957 | 13055 ft | 284 kts | 311° |
| 2026-04-22 10:19 | 22.51391 | 113.69703 | 13156 ft | 326 kts | 338° |
| 2026-04-22 10:19 | 22.53704 | 113.69125 | 13497 ft | 349 kts | 345° |
| 2026-04-22 10:20 | 22.56135 | 113.68744 | 14195 ft | 359 kts | 355° |
| 2026-04-22 10:20 | 22.58610 | 113.69053 | 15109 ft | 366 kts | 12° |
| 2026-04-22 10:20 | 22.60959 | 113.70148 | 15961 ft | 373 kts | 29° |
| 2026-04-22 10:20 | 22.63058 | 113.71862 | 16661 ft | 379 kts | 37° |
| 2026-04-22 10:21 | 22.65118 | 113.73689 | 17347 ft | 383 kts | 36° |
| 2026-04-22 10:21 | 22.67195 | 113.75520 | 18000 ft | 386 kts | 36° |
| 2026-04-22 10:21 | 22.69296 | 113.77370 | 18628 ft | 390 kts | 36° |
| 2026-04-22 10:21 | 22.71410 | 113.79231 | 19229 ft | 394 kts | 36° |
| 2026-04-22 10:22 | 22.73548 | 113.81112 | 19820 ft | 398 kts | 36° |
| 2026-04-22 10:22 | 22.75703 | 113.83007 | 20388 ft | 401 kts | 36° |
| 2026-04-22 10:22 | 22.77890 | 113.84930 | 20910 ft | 406 kts | 36° |
| 2026-04-22 10:22 | 22.80101 | 113.86873 | 21404 ft | 410 kts | 36° |
| 2026-04-22 10:23 | 22.82300 | 113.88806 | 21919 ft | 413 kts | 36° |
| 2026-04-22 10:23 | 22.84558 | 113.90791 | 22415 ft | 416 kts | 36° |
| 2026-04-22 10:23 | 22.86808 | 113.92769 | 22885 ft | 420 kts | 36° |
| 2026-04-22 10:23 | 22.89261 | 113.94573 | 23374 ft | 416 kts | 22° |
| 2026-04-22 10:24 | 22.92002 | 113.95583 | 23862 ft | 410 kts | 7° |
| 2026-04-22 10:24 | 22.94863 | 113.96104 | 24322 ft | 411 kts | 5° |
| 2026-04-22 10:24 | 22.97731 | 113.96607 | 24820 ft | 413 kts | 5° |
| 2026-04-22 10:24 | 23.00567 | 113.97108 | 25274 ft | 414 kts | 5° |
| 2026-04-22 10:25 | 23.03448 | 113.97615 | 25740 ft | 416 kts | 5° |
| 2026-04-22 10:25 | 23.06305 | 113.98117 | 26145 ft | 418 kts | 5° |
| 2026-04-22 10:25 | 23.09199 | 113.98625 | 26526 ft | 420 kts | 5° |
| 2026-04-22 10:25 | 23.12135 | 113.99141 | 26906 ft | 422 kts | 4° |
| 2026-04-22 10:26 | 23.15038 | 113.99650 | 27260 ft | 425 kts | 4° |
| 2026-04-22 10:26 | 23.17994 | 114.00169 | 27623 ft | 426 kts | 4° |
| 2026-04-22 10:26 | 23.20899 | 114.00678 | 27960 ft | 428 kts | 4° |
| 2026-04-22 10:26 | 23.23871 | 114.01199 | 28309 ft | 430 kts | 4° |
| 2026-04-22 10:27 | 23.26838 | 114.01774 | 28662 ft | 434 kts | 9° |
| 2026-04-22 10:27 | 23.29702 | 114.02942 | 28951 ft | 446 kts | 23° |
| 2026-04-22 10:27 | 23.32300 | 114.04876 | 29224 ft | 455 kts | 34° |
| 2026-04-22 10:27 | 23.34765 | 114.07048 | 29456 ft | 459 kts | 34° |
| 2026-04-22 10:28 | 23.37271 | 114.09227 | 29738 ft | 460 kts | 33° |
| 2026-04-22 10:28 | 23.39821 | 114.11404 | 30018 ft | 461 kts | 33° |
| 2026-04-22 10:28 | 23.42353 | 114.13564 | 30282 ft | 462 kts | 33° |
| 2026-04-22 10:28 | 23.44885 | 114.15726 | 30540 ft | 464 kts | 33° |
| 2026-04-22 10:29 | 23.47452 | 114.17915 | 30766 ft | 466 kts | 33° |
| 2026-04-22 10:29 | 23.50008 | 114.20096 | 30989 ft | 467 kts | 33° |
| 2026-04-22 10:29 | 23.52552 | 114.22266 | 31229 ft | 468 kts | 33° |
| 2026-04-22 10:29 | 23.55122 | 114.24461 | 31470 ft | 469 kts | 33° |
| 2026-04-22 10:30 | 23.57696 | 114.26658 | 31680 ft | 470 kts | 33° |
| 2026-04-22 10:30 | 23.60269 | 114.28854 | 31842 ft | 473 kts | 33° |
| 2026-04-22 10:30 | 23.62868 | 114.31074 | 32027 ft | 474 kts | 33° |
| 2026-04-22 10:30 | 23.65480 | 114.33292 | 32223 ft | 474 kts | 32° |
| 2026-04-22 10:31 | 23.68143 | 114.35483 | 32380 ft | 475 kts | 32° |
| 2026-04-22 10:31 | 23.70778 | 114.37641 | 32556 ft | 476 kts | 32° |
| 2026-04-22 10:31 | 23.73441 | 114.39826 | 32803 ft | 475 kts | 32° |
| 2026-04-22 10:31 | 23.76087 | 114.41997 | 33054 ft | 475 kts | 32° |
| 2026-04-22 10:32 | 23.78739 | 114.44175 | 33345 ft | 473 kts | 32° |
| 2026-04-22 10:32 | 23.81358 | 114.46326 | 33602 ft | 473 kts | 32° |
| 2026-04-22 10:32 | 23.83992 | 114.48490 | 33847 ft | 472 kts | 32° |
| 2026-04-22 10:32 | 23.86623 | 114.50653 | 34080 ft | 472 kts | 31° |
| 2026-04-22 10:33 | 23.89253 | 114.52816 | 34324 ft | 471 kts | 31° |
| 2026-04-22 10:33 | 23.91870 | 114.54970 | 34554 ft | 471 kts | 32° |
| 2026-04-22 10:33 | 23.94492 | 114.57128 | 34756 ft | 471 kts | 32° |
| 2026-04-22 10:33 | 23.97087 | 114.59266 | 34942 ft | 471 kts | 31° |
| 2026-04-22 10:34 | 23.99705 | 114.61423 | 35157 ft | 470 kts | 32° |
| 2026-04-22 10:34 | 24.02323 | 114.63582 | 35349 ft | 470 kts | 32° |
| 2026-04-22 10:34 | 24.04936 | 114.65737 | 35513 ft | 470 kts | 32° |
| 2026-04-22 10:34 | 24.07559 | 114.67902 | 35668 ft | 470 kts | 32° |
| 2026-04-22 10:35 | 24.10181 | 114.70067 | 35803 ft | 471 kts | 32° |
| 2026-04-22 10:35 | 24.12796 | 114.72227 | 35907 ft | 472 kts | 32° |
| 2026-04-22 10:35 | 24.15422 | 114.74399 | 36060 ft | 471 kts | 32° |
| 2026-04-22 10:35 | 24.18060 | 114.76581 | 36210 ft | 471 kts | 32° |
| 2026-04-22 10:36 | 24.20666 | 114.78738 | 36361 ft | 471 kts | 32° |
| 2026-04-22 10:36 | 24.23265 | 114.80891 | 36523 ft | 470 kts | 32° |
| 2026-04-22 10:36 | 24.25876 | 114.83073 | 36647 ft | 471 kts | 34° |
| 2026-04-22 10:36 | 24.28362 | 114.85507 | 36738 ft | 477 kts | 40° |
| 2026-04-22 10:37 | 24.34684 | 114.94064 | 36940 ft | 485 kts | 48° |
| 2026-04-22 10:38 | 24.38809 | 114.99962 | 36959 ft | 489 kts | 48° |
| 2026-04-22 10:38 | 24.42967 | 115.05912 | 36961 ft | 493 kts | 48° |
| 2026-04-22 10:39 | 24.47143 | 115.11896 | 36952 ft | 496 kts | 48° |
| 2026-04-22 10:39 | 24.51360 | 115.17941 | 36942 ft | 499 kts | 48° |
| 2026-04-22 10:40 | 24.55591 | 115.24013 | 36937 ft | 501 kts | 48° |
| 2026-04-22 10:40 | 24.59855 | 115.30138 | 36939 ft | 503 kts | 48° |
| 2026-04-22 10:41 | 24.64112 | 115.36261 | 36944 ft | 505 kts | 48° |
| 2026-04-22 10:41 | 24.68389 | 115.42399 | 36946 ft | 506 kts | 48° |
| 2026-04-22 10:42 | 24.72703 | 115.48517 | 36944 ft | 507 kts | 48° |
| 2026-04-22 10:42 | 24.77033 | 115.54663 | 36954 ft | 507 kts | 47° |
| 2026-04-22 10:43 | 24.81333 | 115.60775 | 36966 ft | 507 kts | 47° |
| 2026-04-22 10:43 | 24.85673 | 115.66957 | 36965 ft | 507 kts | 48° |
| 2026-04-22 10:44 | 24.89966 | 115.73083 | 36959 ft | 507 kts | 48° |
| 2026-04-22 10:44 | 24.94282 | 115.79251 | 36953 ft | 507 kts | 49° |
| 2026-04-22 10:45 | 24.98566 | 115.85380 | 36956 ft | 508 kts | 48° |
| 2026-04-22 10:45 | 25.02885 | 115.91567 | 36954 ft | 509 kts | 48° |
| 2026-04-22 10:46 | 25.07214 | 115.97777 | 36964 ft | 509 kts | 48° |
| 2026-04-22 10:46 | 25.11532 | 116.03978 | 36980 ft | 509 kts | 48° |
| 2026-04-22 10:47 | 25.15851 | 116.10188 | 36980 ft | 510 kts | 48° |
| 2026-04-22 10:47 | 25.20175 | 116.16415 | 36979 ft | 510 kts | 48° |
| 2026-04-22 10:48 | 25.24482 | 116.22623 | 36974 ft | 510 kts | 48° |
| 2026-04-22 10:48 | 25.28787 | 116.28838 | 36981 ft | 510 kts | 48° |
| 2026-04-22 10:49 | 25.33081 | 116.35050 | 36990 ft | 510 kts | 48° |
| 2026-04-22 10:49 | 25.37401 | 116.41307 | 36994 ft | 510 kts | 48° |
| 2026-04-22 10:50 | 25.41706 | 116.47552 | 36994 ft | 510 kts | 48° |
| 2026-04-22 10:50 | 25.46005 | 116.53795 | 36991 ft | 510 kts | 48° |
| 2026-04-22 10:51 | 25.50301 | 116.60041 | 36986 ft | 510 kts | 48° |
| 2026-04-22 10:51 | 25.54618 | 116.66327 | 36976 ft | 511 kts | 48° |
| 2026-04-22 10:52 | 25.59010 | 116.72466 | 36967 ft | 509 kts | 45° |
| 2026-04-22 10:52 | 25.63582 | 116.78466 | 36967 ft | 509 kts | 45° |
| 2026-04-22 10:53 | 25.68146 | 116.84467 | 36971 ft | 509 kts | 45° |
| 2026-04-22 10:53 | 25.72700 | 116.90464 | 36974 ft | 509 kts | 45° |
| 2026-04-22 10:54 | 25.77280 | 116.96504 | 36972 ft | 509 kts | 45° |
| 2026-04-22 10:54 | 25.81810 | 117.02488 | 36984 ft | 509 kts | 45° |
| 2026-04-22 10:55 | 25.86384 | 117.08536 | 36994 ft | 510 kts | 45° |
| 2026-04-22 10:55 | 25.90961 | 117.14597 | 36998 ft | 510 kts | 45° |
| 2026-04-22 10:56 | 25.95534 | 117.20655 | 36995 ft | 511 kts | 45° |
| 2026-04-22 10:56 | 26.00142 | 117.26705 | 36993 ft | 511 kts | 44° |
| 2026-04-22 10:57 | 26.04736 | 117.32764 | 36994 ft | 511 kts | 44° |
| 2026-04-22 10:57 | 26.09324 | 117.38822 | 36992 ft | 511 kts | 45° |
| 2026-04-22 10:58 | 26.13909 | 117.44884 | 36983 ft | 512 kts | 44° |
| 2026-04-22 10:58 | 26.18500 | 117.50964 | 36966 ft | 513 kts | 44° |
| 2026-04-22 10:59 | 26.23083 | 117.57040 | 36959 ft | 513 kts | 44° |
| 2026-04-22 10:59 | 26.27684 | 117.63150 | 36972 ft | 513 kts | 45° |
| 2026-04-22 11:00 | 26.32285 | 117.69268 | 36975 ft | 513 kts | 45° |
| 2026-04-22 11:00 | 26.36890 | 117.75398 | 36961 ft | 514 kts | 45° |
| 2026-04-22 11:01 | 26.41477 | 117.81504 | 36947 ft | 515 kts | 45° |
| 2026-04-22 11:01 | 26.46089 | 117.87629 | 36951 ft | 515 kts | 45° |
| 2026-04-22 11:02 | 26.50694 | 117.93753 | 36947 ft | 516 kts | 45° |
| 2026-04-22 11:02 | 26.55012 | 118.00201 | 36940 ft | 523 kts | 54° |
| 2026-04-22 11:03 | 26.58452 | 118.07427 | 36932 ft | 526 kts | 59° |
| 2026-04-22 11:03 | 26.61779 | 118.14657 | 36927 ft | 526 kts | 59° |
| 2026-04-22 11:04 | 26.65130 | 118.21941 | 36929 ft | 526 kts | 59° |
| 2026-04-22 11:04 | 26.68460 | 118.29189 | 36928 ft | 526 kts | 59° |
| 2026-04-22 11:05 | 26.71810 | 118.36488 | 36938 ft | 526 kts | 59° |
| 2026-04-22 11:05 | 26.75125 | 118.43721 | 36951 ft | 526 kts | 58° |
| 2026-04-22 11:06 | 26.78456 | 118.50999 | 36963 ft | 526 kts | 59° |
| 2026-04-22 11:06 | 26.81797 | 118.58308 | 36973 ft | 526 kts | 59° |
| 2026-04-22 11:07 | 26.85117 | 118.65582 | 36985 ft | 527 kts | 59° |
| 2026-04-22 11:07 | 26.88438 | 118.72871 | 37001 ft | 526 kts | 59° |
| 2026-04-22 11:08 | 26.91763 | 118.80180 | 37011 ft | 526 kts | 59° |
| 2026-04-22 11:08 | 26.95078 | 118.87480 | 37016 ft | 526 kts | 59° |
| 2026-04-22 11:09 | 26.98387 | 118.94777 | 37020 ft | 527 kts | 59° |
| 2026-04-22 11:09 | 27.01690 | 119.02074 | 37016 ft | 527 kts | 59° |
| 2026-04-22 11:10 | 27.04996 | 119.09391 | 37017 ft | 528 kts | 59° |
| 2026-04-22 11:10 | 27.08332 | 119.16761 | 37001 ft | 528 kts | 59° |
| 2026-04-22 11:11 | 27.11687 | 119.24120 | 36994 ft | 529 kts | 59° |
| 2026-04-22 11:11 | 27.15027 | 119.31464 | 36992 ft | 529 kts | 59° |
| 2026-04-22 11:12 | 27.18356 | 119.38794 | 36970 ft | 530 kts | 59° |
| 2026-04-22 11:12 | 27.21706 | 119.46183 | 36956 ft | 530 kts | 59° |
| 2026-04-22 11:13 | 27.25025 | 119.53518 | 36943 ft | 530 kts | 59° |
| 2026-04-22 11:13 | 27.28402 | 119.60883 | 36953 ft | 530 kts | 59° |
| 2026-04-22 11:14 | 27.31813 | 119.68276 | 36951 ft | 530 kts | 59° |
| 2026-04-22 11:14 | 27.35193 | 119.75615 | 36956 ft | 531 kts | 60° |
| 2026-04-22 11:15 | 27.38558 | 119.82964 | 36954 ft | 531 kts | 59° |
| 2026-04-22 11:15 | 27.41922 | 119.90324 | 36945 ft | 531 kts | 59° |
| 2026-04-22 11:16 | 27.45303 | 119.97726 | 36936 ft | 531 kts | 60° |
| 2026-04-22 11:16 | 27.48668 | 120.05101 | 36928 ft | 531 kts | 59° |
| 2026-04-22 11:17 | 27.52044 | 120.12515 | 36921 ft | 531 kts | 59° |
| 2026-04-22 11:17 | 27.55424 | 120.19950 | 36914 ft | 531 kts | 59° |
| 2026-04-22 11:18 | 27.58777 | 120.27329 | 36909 ft | 531 kts | 59° |
| 2026-04-22 11:18 | 27.62754 | 120.34248 | 36907 ft | 524 kts | 46° |
| 2026-04-22 11:19 | 27.67835 | 120.40068 | 36897 ft | 514 kts | 33° |
| 2026-04-22 11:19 | 27.73667 | 120.44583 | 36884 ft | 508 kts | 26° |
| 2026-04-22 11:20 | 27.79630 | 120.48900 | 36874 ft | 508 kts | 26° |
| 2026-04-22 11:20 | 27.85581 | 120.53212 | 36877 ft | 509 kts | 26° |
| 2026-04-22 11:21 | 27.91545 | 120.57536 | 36872 ft | 509 kts | 26° |
| 2026-04-22 11:21 | 27.97533 | 120.61871 | 36870 ft | 508 kts | 25° |
| 2026-04-22 11:22 | 28.03826 | 120.65114 | 36882 ft | 492 kts | 9° |
| 2026-04-22 11:22 | 28.10527 | 120.66367 | 36883 ft | 479 kts | 357° |
| 2026-04-22 11:23 | 28.17208 | 120.67031 | 36902 ft | 480 kts | 358° |
| 2026-04-22 11:23 | 28.23931 | 120.67703 | 36912 ft | 480 kts | 358° |
| 2026-04-22 11:24 | 28.30599 | 120.68366 | 36923 ft | 481 kts | 357° |
| 2026-04-22 11:24 | 28.37310 | 120.69033 | 36929 ft | 481 kts | 357° |
| 2026-04-22 11:25 | 28.43976 | 120.69694 | 36936 ft | 482 kts | 357° |
| 2026-04-22 11:25 | 28.50678 | 120.70370 | 36945 ft | 483 kts | 358° |
| 2026-04-22 11:26 | 28.57438 | 120.71054 | 36938 ft | 484 kts | 358° |
| 2026-04-22 11:26 | 28.64141 | 120.71732 | 36936 ft | 484 kts | 358° |
| 2026-04-22 11:27 | 28.70871 | 120.72424 | 36936 ft | 485 kts | 358° |
| 2026-04-22 11:27 | 28.77587 | 120.73162 | 36934 ft | 485 kts | 358° |
| 2026-04-22 11:28 | 28.84335 | 120.73905 | 36937 ft | 486 kts | 358° |
| 2026-04-22 11:28 | 28.91108 | 120.74604 | 36696 ft | 489 kts | 358° |
| 2026-04-22 11:28 | 28.94450 | 120.74942 | 36168 ft | 483 kts | 358° |
| 2026-04-22 11:29 | 28.97782 | 120.75281 | 35658 ft | 476 kts | 358° |
| 2026-04-22 11:29 | 29.01092 | 120.75616 | 35153 ft | 471 kts | 358° |
| 2026-04-22 11:29 | 29.04338 | 120.75942 | 34658 ft | 470 kts | 358° |
| 2026-04-22 11:29 | 29.07607 | 120.76270 | 34165 ft | 471 kts | 358° |
| 2026-04-22 11:30 | 29.10892 | 120.76600 | 33651 ft | 472 kts | 358° |
| 2026-04-22 11:30 | 29.14141 | 120.76927 | 33145 ft | 474 kts | 358° |
| 2026-04-22 11:30 | 29.17431 | 120.77267 | 32622 ft | 477 kts | 359° |
| 2026-04-22 11:30 | 29.20772 | 120.77619 | 32091 ft | 476 kts | 359° |
| 2026-04-22 11:31 | 29.24033 | 120.77964 | 31573 ft | 473 kts | 358° |
| 2026-04-22 11:31 | 29.27300 | 120.78310 | 31048 ft | 469 kts | 358° |
| 2026-04-22 11:31 | 29.30558 | 120.78657 | 30535 ft | 463 kts | 359° |
| 2026-04-22 11:31 | 29.33716 | 120.78993 | 30042 ft | 456 kts | 359° |
| 2026-04-22 11:32 | 29.36871 | 120.79328 | 29541 ft | 451 kts | 358° |
| 2026-04-22 11:32 | 29.40006 | 120.79660 | 29044 ft | 446 kts | 359° |
| 2026-04-22 11:32 | 29.43069 | 120.79985 | 28557 ft | 441 kts | 358° |
| 2026-04-22 11:32 | 29.46092 | 120.80305 | 28063 ft | 438 kts | 359° |
| 2026-04-22 11:33 | 29.49149 | 120.80629 | 27575 ft | 434 kts | 359° |
| 2026-04-22 11:33 | 29.52115 | 120.80943 | 27108 ft | 431 kts | 359° |
| 2026-04-22 11:33 | 29.55091 | 120.81258 | 26631 ft | 429 kts | 359° |
| 2026-04-22 11:33 | 29.58092 | 120.81590 | 26150 ft | 428 kts | 1° |
| 2026-04-22 11:34 | 29.60981 | 120.82403 | 25677 ft | 436 kts | 15° |
| 2026-04-22 11:34 | 29.63756 | 120.83957 | 25175 ft | 440 kts | 23° |
| 2026-04-22 11:34 | 29.66443 | 120.85629 | 24696 ft | 437 kts | 23° |
| 2026-04-22 11:34 | 29.69119 | 120.87285 | 24212 ft | 435 kts | 23° |
| 2026-04-22 11:35 | 29.71748 | 120.88911 | 23749 ft | 432 kts | 22° |
| 2026-04-22 11:35 | 29.74399 | 120.90550 | 23261 ft | 430 kts | 22° |
| 2026-04-22 11:35 | 29.77029 | 120.92175 | 22787 ft | 426 kts | 22° |
| 2026-04-22 11:35 | 29.79635 | 120.93784 | 22319 ft | 424 kts | 22° |
| 2026-04-22 11:36 | 29.82212 | 120.95377 | 21849 ft | 421 kts | 22° |
| 2026-04-22 11:36 | 29.84784 | 120.96965 | 21385 ft | 418 kts | 22° |
| 2026-04-22 11:36 | 29.87327 | 120.98536 | 20929 ft | 415 kts | 23° |
| 2026-04-22 11:36 | 29.89871 | 121.00108 | 20466 ft | 413 kts | 23° |
| 2026-04-22 11:37 | 29.92388 | 121.01662 | 20014 ft | 410 kts | 23° |
| 2026-04-22 11:37 | 29.94896 | 121.03213 | 19561 ft | 407 kts | 24° |
| 2026-04-22 11:37 | 29.97412 | 121.04768 | 19116 ft | 404 kts | 24° |
| 2026-04-22 11:37 | 29.99894 | 121.06305 | 18669 ft | 402 kts | 24° |
| 2026-04-22 11:38 | 30.02351 | 121.07825 | 18237 ft | 399 kts | 25° |
| 2026-04-22 11:38 | 30.04806 | 121.09347 | 17805 ft | 397 kts | 25° |
| 2026-04-22 11:38 | 30.09633 | 121.12338 | 16931 ft | 392 kts | 25° |
| 2026-04-22 11:39 | 30.12044 | 121.13834 | 16494 ft | 389 kts | 25° |
| 2026-04-22 11:39 | 30.14431 | 121.15315 | 16062 ft | 386 kts | 24° |
| 2026-04-22 11:39 | 30.16824 | 121.16798 | 15620 ft | 382 kts | 25° |
| 2026-04-22 11:39 | 30.19227 | 121.18291 | 15198 ft | 379 kts | 24° |
| 2026-04-22 11:40 | 30.21583 | 121.19757 | 14766 ft | 376 kts | 25° |
| 2026-04-22 11:40 | 30.23855 | 121.21168 | 14345 ft | 373 kts | 24° |
| 2026-04-22 11:40 | 30.26272 | 121.22214 | 13940 ft | 360 kts | 6° |
| 2026-04-22 11:40 | 30.28728 | 121.22595 | 13540 ft | 354 kts | 1° |
| 2026-04-22 11:41 | 30.31179 | 121.22920 | 13147 ft | 350 kts | 1° |
| 2026-04-22 11:41 | 30.33631 | 121.23246 | 12774 ft | 348 kts | 1° |
| 2026-04-22 11:41 | 30.36056 | 121.23568 | 12380 ft | 346 kts | 2° |
| 2026-04-22 11:41 | 30.38464 | 121.23887 | 11986 ft | 342 kts | 2° |
| 2026-04-22 11:42 | 30.39608 | 121.24040 | 11811 ft | 339 kts | 2° |
| 2026-04-22 11:42 | 30.39826 | 121.24070 | 11775 ft | 339 kts | 1° |
| 2026-04-22 11:42 | 30.42169 | 121.24380 | 11395 ft | 332 kts | 1° |
| 2026-04-22 11:42 | 30.44440 | 121.24680 | 11063 ft | 322 kts | 2° |
| 2026-04-22 11:43 | 30.46631 | 121.24983 | 10859 ft | 312 kts | 1° |
| 2026-04-22 11:43 | 30.48785 | 121.25286 | 10472 ft | 309 kts | 2° |
| 2026-04-22 11:43 | 30.50904 | 121.25583 | 10152 ft | 303 kts | 3° |
| 2026-04-22 11:43 | 30.52990 | 121.25874 | 9811 ft | 298 kts | 2° |
| 2026-04-22 11:44 | 30.55027 | 121.26161 | 9490 ft | 293 kts | 2° |
| 2026-04-22 11:44 | 30.57044 | 121.26443 | 9159 ft | 291 kts | 3° |
| 2026-04-22 11:44 | 30.59074 | 121.26725 | 8832 ft | 290 kts | 4° |
| 2026-04-22 11:44 | 30.61051 | 121.27001 | 8564 ft | 287 kts | 4° |
| 2026-04-22 11:45 | 30.63029 | 121.27277 | 8284 ft | 286 kts | 5° |
| 2026-04-22 11:45 | 30.65009 | 121.27555 | 8000 ft | 283 kts | 6° |
| 2026-04-22 11:45 | 30.66958 | 121.27828 | 7717 ft | 280 kts | 7° |
| 2026-04-22 11:45 | 30.68891 | 121.28099 | 7401 ft | 277 kts | 7° |
| 2026-04-22 11:46 | 30.70797 | 121.28366 | 7097 ft | 275 kts | 7° |
| 2026-04-22 11:46 | 30.72693 | 121.28632 | 6793 ft | 274 kts | 7° |
| 2026-04-22 11:46 | 30.74604 | 121.28899 | 6487 ft | 272 kts | 7° |
| 2026-04-22 11:46 | 30.76474 | 121.29161 | 6148 ft | 273 kts | 6° |
| 2026-04-22 11:47 | 30.78362 | 121.29426 | 5812 ft | 272 kts | 6° |
| 2026-04-22 11:47 | 30.80244 | 121.29690 | 5476 ft | 270 kts | 5° |
| 2026-04-22 11:47 | 30.82126 | 121.29954 | 5143 ft | 267 kts | 5° |
| 2026-04-22 11:47 | 30.83932 | 121.30208 | 4864 ft | 260 kts | 5° |
| 2026-04-22 11:48 | 30.85717 | 121.30559 | 4573 ft | 255 kts | 13° |
| 2026-04-22 11:48 | 30.87393 | 121.31185 | 4298 ft | 250 kts | 17° |
| 2026-04-22 11:48 | 30.89026 | 121.31833 | 4024 ft | 244 kts | 17° |
| 2026-04-22 11:48 | 30.90622 | 121.32461 | 3756 ft | 239 kts | 17° |
| 2026-04-22 11:49 | 30.92160 | 121.33065 | 3515 ft | 227 kts | 18° |
| 2026-04-22 11:49 | 30.93630 | 121.33641 | 3251 ft | 220 kts | 18° |
| 2026-04-22 11:49 | 30.95089 | 121.34212 | 3011 ft | 218 kts | 18° |
| 2026-04-22 11:49 | 30.96524 | 121.34753 | 2764 ft | 215 kts | 14° |
| 2026-04-22 11:50 | 30.97993 | 121.34853 | 2538 ft | 207 kts | 358° |
| 2026-04-22 11:50 | 30.99399 | 121.34772 | 2315 ft | 194 kts | 359° |
| 2026-04-22 11:50 | 31.00706 | 121.34705 | 2101 ft | 180 kts | 359° |
| 2026-04-22 11:50 | 31.01942 | 121.34641 | 1957 ft | 176 kts | 359° |
| 2026-04-22 11:51 | 31.03169 | 121.34562 | 1972 ft | 173 kts | 358° |
| 2026-04-22 11:51 | 31.04314 | 121.34489 | 1985 ft | 160 kts | 359° |
| 2026-04-22 11:51 | 31.05417 | 121.34425 | 1978 ft | 157 kts | 359° |
| 2026-04-22 11:51 | 31.06511 | 121.34364 | 1935 ft | 156 kts | 359° |
| 2026-04-22 11:52 | 31.07606 | 121.34305 | 1954 ft | 156 kts | 359° |
| 2026-04-22 11:52 | 31.08696 | 121.34244 | 1915 ft | 158 kts | 359° |
| 2026-04-22 11:52 | 31.09771 | 121.34185 | 1711 ft | 157 kts | 359° |
| 2026-04-22 11:52 | 31.10872 | 121.34125 | 1517 ft | 156 kts | 359° |
| 2026-04-22 11:53 | 31.11951 | 121.34067 | 1306 ft | 155 kts | 359° |
| 2026-04-22 11:53 | 31.13038 | 121.34008 | 1099 ft | 154 kts | 359° |
| 2026-04-22 11:53 | 31.14125 | 121.33949 | 892 ft | 145 kts | 359° |
| 2026-04-22 11:53 | 31.15089 | 121.33896 | 726 ft | 132 kts | 359° |
| 2026-04-22 11:54 | 31.16001 | 121.33845 | 576 ft | 129 kts | 359° |
| 2026-04-22 11:54 | 31.16889 | 121.33792 | 379 ft | 126 kts | 358° |
| 2026-04-22 11:54 | 31.17765 | 121.33739 | 197 ft | 126 kts | 358° |
| 2026-04-22 11:54 | 31.18635 | 121.33692 | 27 ft | 118 kts | 358° |
| 2026-04-22 11:55 | 31.19381 | 121.33652 | 21 ft | 86 kts | 357° |
| 2026-04-22 11:55 | 31.19790 | 121.33632 | 21 ft | 36 kts | 357° |
| 2026-04-22 11:55 | 31.20024 | 121.33648 | 21 ft | 32 kts | 11° |
| 2026-04-22 11:55 | 31.20143 | 121.33699 | 21 ft | 10 kts | 26° |
| 2026-04-22 11:56 | 31.20196 | 121.33730 | 21 ft | 0 kts | 27° |
| 2026-04-22 11:57 | 31.20209 | 121.33739 | 21 ft | 7 kts | 27° |
| 2026-04-22 11:57 | 31.20280 | 121.33782 | 21 ft | 13 kts | 27° |
| 2026-04-22 11:57 | 31.20372 | 121.33832 | 21 ft | 15 kts | 20° |
| 2026-04-22 11:57 | 31.20476 | 121.33850 | 21 ft | 12 kts | 15° |
| 2026-04-22 11:58 | 31.20504 | 121.33947 | 21 ft | 13 kts | 88° |
| 2026-04-22 11:58 | 31.20557 | 121.33984 | 21 ft | 6 kts | 354° |
| 2026-04-22 11:58 | 31.20567 | 121.33944 | 21 ft | 3 kts | 266° |
| 2026-04-22 11:58 | 31.20567 | 121.33936 | 21 ft | 0 kts | 267° |